createdAt,value
2018-12-29T00:00:40.854Z,4.40
2018-12-29T00:03:09.755Z,4.40
2018-12-29T00:05:38.597Z,4.40
2018-12-29T00:08:07.446Z,4.40
2018-12-29T00:10:36.546Z,4.40
2018-12-29T00:13:05.469Z,4.50
2018-12-29T00:15:34.429Z,4.50
2018-12-29T00:18:03.259Z,4.50
2018-12-29T00:20:32.099Z,4.50
2018-12-29T00:23:01.071Z,4.50
2018-12-29T00:25:29.903Z,4.50
2018-12-29T00:27:58.825Z,4.40
2018-12-29T00:30:27.850Z,4.40
2018-12-29T00:32:56.751Z,4.40
2018-12-29T00:35:25.682Z,4.50
2018-12-29T00:37:54.617Z,4.50
2018-12-29T00:40:23.729Z,4.50
2018-12-29T00:42:52.689Z,4.50
2018-12-29T00:45:21.646Z,4.50
2018-12-29T00:47:50.574Z,4.50
2018-12-29T00:50:19.437Z,4.50
2018-12-29T00:52:48.432Z,4.50
2018-12-29T00:55:17.416Z,4.50
2018-12-29T00:57:46.272Z,4.50
2018-12-29T01:00:15.168Z,4.50
2018-12-29T01:02:44.156Z,4.50
2018-12-29T01:05:15.909Z,4.50
2018-12-29T01:07:44.803Z,4.50
2018-12-29T01:10:13.905Z,4.50
2018-12-29T01:12:42.833Z,4.50
2018-12-29T01:15:11.727Z,4.60
2018-12-29T01:17:40.741Z,4.50
2018-12-29T01:20:09.883Z,4.60
2018-12-29T01:22:38.793Z,4.60
2018-12-29T01:25:07.683Z,4.60
2018-12-29T01:27:36.623Z,4.60
2018-12-29T01:30:06.614Z,4.60
2018-12-29T01:32:35.528Z,4.60
2018-12-29T01:35:04.913Z,4.60
2018-12-29T01:37:33.818Z,4.60
2018-12-29T01:40:02.746Z,4.70
2018-12-29T01:42:31.776Z,4.70
2018-12-29T01:45:00.794Z,4.70
2018-12-29T01:47:29.696Z,4.70
2018-12-29T01:49:58.570Z,4.70
2018-12-29T01:52:27.538Z,4.70
2018-12-29T01:54:56.386Z,4.70
2018-12-29T01:57:25.237Z,4.70
2018-12-29T01:59:54.144Z,4.70
2018-12-29T02:02:22.972Z,4.70
2018-12-29T02:04:51.821Z,4.70
2018-12-29T02:07:20.825Z,4.80
2018-12-29T02:09:49.725Z,4.80
2018-12-29T02:12:18.654Z,4.70
2018-12-29T02:14:47.461Z,4.70
2018-12-29T02:17:16.441Z,4.70
2018-12-29T02:19:45.431Z,4.70
2018-12-29T02:22:14.339Z,4.80
2018-12-29T02:24:43.399Z,4.70
2018-12-29T02:27:12.258Z,4.70
2018-12-29T02:29:41.227Z,4.80
2018-12-29T02:32:10.134Z,4.80
2018-12-29T02:34:39.035Z,4.80
2018-12-29T02:37:07.904Z,4.70
2018-12-29T02:39:36.745Z,4.70
2018-12-29T02:42:05.632Z,4.70
2018-12-29T02:44:34.689Z,4.70
2018-12-29T02:47:03.725Z,4.70
2018-12-29T02:49:32.682Z,4.70
2018-12-29T02:52:01.536Z,4.70
2018-12-29T02:54:30.453Z,4.80
2018-12-29T02:56:59.401Z,4.80
2018-12-29T02:59:28.292Z,4.70
2018-12-29T03:01:57.200Z,4.80
2018-12-29T03:04:26.073Z,4.70
2018-12-29T03:06:54.953Z,4.70
2018-12-29T03:09:23.785Z,4.80
2018-12-29T03:11:52.699Z,4.80
2018-12-29T03:14:21.709Z,4.80
2018-12-29T03:16:50.750Z,4.80
2018-12-29T03:19:19.823Z,4.80
2018-12-29T03:21:48.920Z,4.80
2018-12-29T03:24:17.770Z,4.80
2018-12-29T03:26:46.700Z,4.80
2018-12-29T03:29:15.658Z,4.90
2018-12-29T03:31:44.506Z,4.90
2018-12-29T03:34:13.419Z,4.90
2018-12-29T03:36:42.313Z,4.90
2018-12-29T03:39:11.176Z,4.90
2018-12-29T03:41:40.195Z,4.90
2018-12-29T03:44:09.149Z,4.90
2018-12-29T03:46:37.987Z,4.90
2018-12-29T03:49:06.969Z,5.00
2018-12-29T03:51:35.851Z,5.00
2018-12-29T03:54:04.859Z,5.00
2018-12-29T03:56:33.781Z,5.00
2018-12-29T03:59:02.623Z,5.00
2018-12-29T04:01:31.558Z,5.00
2018-12-29T04:04:00.547Z,5.00
2018-12-29T04:06:29.451Z,5.00
2018-12-29T04:09:41.627Z,5.00
2018-12-29T04:12:16.450Z,5.00
2018-12-29T04:14:45.671Z,5.10
2018-12-29T04:17:14.628Z,5.10
2018-12-29T04:19:43.633Z,5.10
2018-12-29T04:22:12.574Z,5.00
2018-12-29T04:24:41.508Z,5.10
2018-12-29T04:27:10.372Z,5.00
2018-12-29T04:29:39.277Z,5.00
2018-12-29T04:32:08.418Z,5.00
2018-12-29T04:34:37.336Z,5.10
2018-12-29T04:37:06.230Z,5.10
2018-12-29T04:39:35.124Z,5.00
2018-12-29T04:42:04.256Z,5.10
2018-12-29T04:44:33.096Z,5.10
2018-12-29T04:47:02.021Z,5.10
2018-12-29T04:49:31.083Z,5.10
2018-12-29T04:52:00.023Z,5.10
2018-12-29T04:54:31.818Z,5.10
2018-12-29T04:57:00.731Z,5.10
2018-12-29T04:59:29.617Z,5.10
2018-12-29T05:01:58.507Z,5.10
2018-12-29T05:04:27.440Z,5.10
2018-12-29T05:06:56.419Z,5.10
2018-12-29T05:09:25.481Z,5.20
2018-12-29T05:11:54.354Z,5.10
2018-12-29T05:14:23.335Z,5.20
2018-12-29T05:16:52.187Z,5.10
2018-12-29T05:19:21.038Z,5.10
2018-12-29T05:21:49.934Z,5.10
2018-12-29T05:24:18.859Z,5.10
2018-12-29T05:26:47.785Z,5.10
2018-12-29T05:29:16.610Z,5.20
2018-12-29T05:31:45.589Z,5.20
2018-12-29T05:34:14.577Z,5.20
2018-12-29T05:36:43.502Z,5.20
2018-12-29T05:39:12.531Z,5.10
2018-12-29T05:41:41.406Z,5.20
2018-12-29T05:44:10.272Z,5.10
2018-12-29T05:46:39.088Z,5.10
2018-12-29T05:49:07.948Z,5.10
2018-12-29T05:51:36.825Z,5.20
2018-12-29T05:54:05.699Z,5.20
2018-12-29T05:56:37.648Z,5.30
2018-12-29T05:59:06.466Z,5.30
2018-12-29T06:01:54.582Z,5.20
2018-12-29T06:04:24.721Z,5.20
2018-12-29T06:06:53.594Z,5.20
2018-12-29T06:09:22.434Z,5.30
2018-12-29T06:11:51.340Z,5.30
2018-12-29T06:14:20.254Z,5.20
2018-12-29T06:16:49.182Z,5.20
2018-12-29T06:19:18.178Z,5.30
2018-12-29T06:21:47.184Z,5.30
2018-12-29T06:24:16.037Z,5.30
2018-12-29T06:26:45.004Z,5.30
2018-12-29T06:29:14.000Z,5.30
2018-12-29T06:31:43.039Z,5.30
2018-12-29T06:34:12.058Z,5.40
2018-12-29T06:36:41.043Z,5.40
2018-12-29T06:39:10.161Z,5.40
2018-12-29T06:41:39.163Z,5.50
2018-12-29T06:44:08.104Z,5.50
2018-12-29T06:46:37.051Z,5.50
2018-12-29T06:49:06.051Z,5.50
2018-12-29T06:51:35.341Z,5.50
2018-12-29T06:54:04.336Z,5.60
2018-12-29T06:56:33.237Z,5.60
2018-12-29T06:59:02.261Z,5.60
2018-12-29T07:01:31.339Z,5.60
2018-12-29T07:04:00.290Z,5.60
2018-12-29T07:06:29.244Z,5.60
2018-12-29T07:08:58.131Z,5.60
2018-12-29T07:11:27.094Z,5.70
2018-12-29T07:13:56.308Z,5.70
2018-12-29T07:16:25.258Z,5.70
2018-12-29T07:18:54.250Z,5.70
2018-12-29T07:21:23.219Z,5.80
2018-12-29T07:23:52.266Z,5.70
2018-12-29T07:26:21.390Z,5.70
2018-12-29T07:28:50.315Z,5.70
2018-12-29T07:31:19.341Z,5.80
2018-12-29T07:33:48.276Z,5.80
2018-12-29T07:36:17.280Z,5.80
2018-12-29T07:38:46.240Z,5.80
2018-12-29T07:41:15.096Z,5.90
2018-12-29T07:43:44.098Z,5.90
2018-12-29T07:46:13.130Z,5.90
2018-12-29T07:48:42.230Z,5.80
2018-12-29T07:51:11.162Z,5.90
2018-12-29T07:53:40.097Z,5.90
2018-12-29T07:56:09.116Z,5.90
2018-12-29T07:58:38.242Z,5.90
2018-12-29T08:01:07.310Z,6.00
2018-12-29T08:03:36.214Z,5.90
2018-12-29T08:06:05.124Z,6.00
2018-12-29T08:08:34.322Z,5.90
2018-12-29T08:11:03.232Z,6.00
2018-12-29T08:13:32.219Z,6.00
2018-12-29T08:16:01.249Z,6.00
2018-12-29T08:18:30.174Z,6.10
2018-12-29T08:20:59.275Z,6.10
2018-12-29T08:23:28.295Z,6.10
2018-12-29T08:25:57.306Z,6.10
2018-12-29T08:28:26.268Z,6.10
2018-12-29T08:30:55.359Z,6.10
2018-12-29T08:33:24.385Z,6.10
2018-12-29T08:36:07.910Z,6.10
2018-12-29T08:38:36.823Z,6.10
2018-12-29T08:41:05.849Z,6.10
2018-12-29T08:43:34.841Z,6.10
2018-12-29T08:46:03.867Z,6.10
2018-12-29T08:48:32.935Z,6.10
2018-12-29T08:51:02.338Z,6.10
2018-12-29T08:53:31.187Z,6.10
2018-12-29T08:56:00.117Z,6.10
2018-12-29T08:58:29.147Z,6.20
2018-12-29T09:00:58.066Z,6.20
2018-12-29T09:03:26.873Z,6.30
2018-12-29T09:05:55.803Z,6.40
2018-12-29T09:08:24.732Z,6.40
2018-12-29T09:10:53.652Z,6.40
2018-12-29T09:13:22.608Z,6.50
2018-12-29T09:15:51.547Z,6.50
2018-12-29T09:18:20.478Z,6.50
2018-12-29T09:20:49.464Z,6.50
2018-12-29T09:23:18.394Z,6.50
2018-12-29T09:25:47.396Z,6.60
2018-12-29T09:28:16.473Z,6.60
2018-12-29T09:30:45.448Z,6.60
2018-12-29T09:33:14.754Z,6.60
2018-12-29T09:35:43.858Z,6.60
2018-12-29T09:38:12.847Z,6.70
2018-12-29T09:40:42.154Z,6.70
2018-12-29T09:43:11.184Z,6.70
2018-12-29T09:45:40.103Z,6.70
2018-12-29T09:48:09.087Z,6.80
2018-12-29T09:50:38.029Z,6.90
2018-12-29T09:53:07.031Z,6.90
2018-12-29T09:55:36.111Z,6.90
2018-12-29T09:58:04.995Z,7.00
2018-12-29T10:00:34.011Z,7.00
2018-12-29T10:03:03.098Z,7.00
2018-12-29T10:05:31.971Z,7.00
2018-12-29T10:08:00.875Z,7.00
2018-12-29T10:10:29.867Z,7.00
2018-12-29T10:12:58.875Z,7.00
2018-12-29T10:15:27.825Z,7.10
2018-12-29T10:17:56.848Z,7.10
2018-12-29T10:20:25.829Z,7.10
2018-12-29T10:22:54.879Z,7.10
2018-12-29T10:25:23.809Z,7.10
2018-12-29T10:27:52.861Z,7.20
2018-12-29T10:30:21.875Z,7.20
2018-12-29T10:32:50.795Z,7.30
2018-12-29T10:35:19.990Z,7.30
2018-12-29T10:37:48.922Z,7.30
2018-12-29T10:40:17.863Z,7.20
2018-12-29T10:42:46.987Z,7.30
2018-12-29T10:45:15.992Z,7.30
2018-12-29T10:47:44.948Z,7.40
2018-12-29T10:50:13.971Z,7.30
2018-12-29T10:52:42.877Z,7.30
2018-12-29T10:55:12.075Z,7.40
2018-12-29T10:57:41.047Z,7.40
2018-12-29T11:00:12.446Z,7.50
2018-12-29T11:02:41.257Z,7.40
2018-12-29T11:05:10.210Z,7.50
2018-12-29T11:07:39.146Z,7.60
2018-12-29T11:10:08.276Z,7.70
2018-12-29T11:12:37.239Z,7.80
2018-12-29T11:15:06.298Z,7.90
2018-12-29T11:17:42.092Z,7.90
2018-12-29T11:20:06.153Z,8.00
2018-12-29T11:22:35.226Z,8.00
2018-12-29T11:25:04.119Z,8.20
2018-12-29T11:27:33.092Z,8.10
2018-12-29T11:30:02.031Z,8.10
2018-12-29T11:32:31.088Z,8.00
2018-12-29T11:35:00.159Z,8.00
2018-12-29T11:37:29.165Z,8.00
2018-12-29T11:39:58.193Z,8.00
2018-12-29T11:42:27.819Z,7.90
2018-12-29T11:44:56.817Z,7.90
2018-12-29T11:47:25.914Z,7.90
2018-12-29T11:49:55.121Z,7.80
2018-12-29T11:52:24.505Z,7.80
2018-12-29T11:54:53.560Z,7.90
2018-12-29T11:57:22.677Z,7.80
2018-12-29T11:59:51.813Z,7.70
2018-12-29T12:02:24.653Z,7.80
2018-12-29T12:04:52.316Z,7.80
2018-12-29T12:07:21.465Z,7.80
2018-12-29T12:09:50.593Z,7.70
2018-12-29T12:12:19.813Z,7.70
2018-12-29T12:14:49.175Z,7.70
2018-12-29T12:17:18.263Z,7.80
2018-12-29T12:19:47.271Z,7.80
2018-12-29T12:22:16.348Z,7.80
2018-12-29T12:24:45.405Z,7.80
2018-12-29T12:27:14.527Z,7.80
2018-12-29T12:29:43.918Z,7.80
2018-12-29T12:32:12.990Z,7.70
2018-12-29T12:34:42.055Z,7.70
2018-12-29T12:37:11.114Z,7.60
2018-12-29T12:39:40.301Z,7.60
2018-12-29T12:42:09.429Z,7.60
2018-12-29T12:44:38.464Z,7.60
2018-12-29T12:47:08.186Z,7.60
2018-12-29T12:49:39.968Z,7.60
2018-12-29T12:52:09.090Z,7.60
2018-12-29T12:54:38.186Z,7.50
2018-12-29T12:57:07.987Z,7.50
2018-12-29T12:59:37.499Z,7.50
2018-12-29T13:02:06.596Z,7.50
2018-12-29T13:04:35.728Z,7.50
2018-12-29T13:07:04.920Z,7.50
2018-12-29T13:09:34.030Z,7.60
2018-12-29T13:12:03.114Z,7.60
2018-12-29T13:14:32.235Z,7.70
2018-12-29T13:17:01.396Z,7.70
2018-12-29T13:19:30.549Z,7.70
2018-12-29T13:21:59.637Z,7.70
2018-12-29T13:24:28.676Z,7.70
2018-12-29T13:26:57.765Z,7.70
2018-12-29T13:29:27.206Z,7.80
2018-12-29T13:31:56.278Z,7.80
2018-12-29T13:34:25.351Z,7.80
2018-12-29T13:36:55.644Z,7.80
2018-12-29T13:39:24.887Z,7.80
2018-12-29T13:41:54.232Z,7.80
2018-12-29T13:44:23.451Z,7.80
2018-12-29T13:46:52.557Z,7.70
2018-12-29T13:49:21.583Z,7.70
2018-12-29T13:51:50.727Z,7.70
2018-12-29T13:54:19.832Z,7.70
2018-12-29T13:56:48.856Z,7.70
2018-12-29T13:59:17.946Z,7.70
2018-12-29T14:01:47.077Z,7.70
2018-12-29T14:04:16.174Z,7.70
2018-12-29T14:06:45.259Z,7.70
2018-12-29T14:09:14.237Z,7.70
2018-12-29T14:11:43.481Z,7.60
2018-12-29T14:14:12.470Z,7.60
2018-12-29T14:16:42.125Z,7.70
2018-12-29T14:19:11.124Z,7.70
2018-12-29T14:21:40.200Z,7.70
2018-12-29T14:24:09.135Z,7.70
2018-12-29T14:26:38.145Z,7.70
2018-12-29T14:29:07.215Z,7.70
2018-12-29T14:31:36.349Z,7.70
2018-12-29T14:34:05.551Z,7.70
2018-12-29T14:36:34.712Z,7.70
2018-12-29T14:39:04.943Z,7.70
2018-12-29T14:41:34.037Z,7.70
2018-12-29T14:44:03.459Z,7.70
2018-12-29T14:46:32.708Z,7.60
2018-12-29T14:49:02.009Z,7.70
2018-12-29T14:51:31.556Z,7.60
2018-12-29T14:54:00.726Z,7.70
2018-12-29T14:56:29.784Z,7.70
2018-12-29T14:59:00.093Z,7.60
2018-12-29T15:01:29.348Z,7.60
2018-12-29T15:03:58.382Z,7.60
2018-12-29T15:06:27.461Z,7.60
2018-12-29T15:08:56.569Z,7.60
2018-12-29T15:11:25.590Z,7.60
2018-12-29T15:13:54.605Z,7.60
2018-12-29T15:16:23.973Z,7.60
2018-12-29T15:18:53.137Z,7.60
2018-12-29T15:21:22.219Z,7.50
2018-12-29T15:23:51.291Z,7.60
2018-12-29T15:26:20.401Z,7.50
2018-12-29T15:28:49.494Z,7.60
2018-12-29T15:31:18.587Z,7.60
2018-12-29T15:33:47.856Z,7.50
2018-12-29T15:36:16.812Z,7.60
2018-12-29T15:38:45.839Z,7.60
2018-12-29T15:41:14.815Z,7.60
2018-12-29T15:43:43.793Z,7.60
2018-12-29T15:46:13.130Z,7.60
2018-12-29T15:48:42.149Z,7.70
2018-12-29T15:51:12.042Z,7.70
2018-12-29T15:53:41.086Z,7.70
2018-12-29T15:56:10.063Z,7.70
2018-12-29T15:58:39.061Z,7.70
2018-12-29T16:01:08.559Z,7.70
2018-12-29T16:03:37.633Z,7.80
2018-12-29T16:06:06.787Z,7.80
2018-12-29T16:08:35.960Z,7.80
2018-12-29T16:11:05.038Z,7.90
2018-12-29T16:13:34.546Z,7.90
2018-12-29T16:16:06.302Z,7.90
2018-12-29T16:18:35.243Z,7.90
2018-12-29T16:21:04.311Z,8.00
2018-12-29T16:23:33.356Z,8.00
2018-12-29T16:26:02.444Z,8.00
2018-12-29T16:28:31.609Z,8.00
2018-12-29T16:31:00.710Z,8.00
2018-12-29T16:33:29.642Z,8.10
2018-12-29T16:35:59.107Z,8.10
2018-12-29T16:38:28.076Z,8.10
2018-12-29T16:41:16.635Z,8.10
2018-12-29T16:43:45.664Z,8.20
2018-12-29T16:46:14.642Z,8.30
2018-12-29T16:48:43.763Z,8.30
2018-12-29T16:51:12.814Z,8.30
2018-12-29T16:53:42.129Z,8.30
2018-12-29T16:56:11.092Z,8.30
2018-12-29T16:58:40.267Z,8.40
2018-12-29T17:01:09.417Z,8.40
2018-12-29T17:03:38.551Z,8.50
2018-12-29T17:06:07.660Z,8.50
2018-12-29T17:08:36.675Z,8.60
2018-12-29T17:11:05.760Z,8.60
2018-12-29T17:13:35.230Z,8.60
2018-12-29T17:16:04.319Z,8.60
2018-12-29T17:18:33.340Z,8.70
2018-12-29T17:21:02.817Z,8.80
2018-12-29T17:23:31.895Z,8.80
2018-12-29T17:26:00.865Z,8.90
2018-12-29T17:28:30.292Z,8.90
2018-12-29T17:30:59.252Z,9.00
2018-12-29T17:33:28.228Z,9.00
2018-12-29T17:35:57.252Z,9.00
2018-12-29T17:38:26.568Z,9.00
2018-12-29T17:40:55.491Z,9.10
2018-12-29T17:43:24.787Z,9.10
2018-12-29T17:45:53.884Z,9.20
2018-12-29T17:48:22.850Z,9.20
2018-12-29T17:50:51.845Z,9.20
2018-12-29T17:53:21.178Z,9.20
2018-12-29T17:55:50.123Z,9.20
2018-12-29T17:58:19.042Z,9.10
2018-12-29T18:00:48.190Z,9.20
2018-12-29T18:03:36.573Z,9.10
2018-12-29T18:06:05.679Z,9.10
2018-12-29T18:08:34.685Z,9.10
2018-12-29T18:11:04.336Z,9.10
2018-12-29T18:13:33.415Z,9.10
2018-12-29T18:16:03.549Z,9.10
2018-12-29T18:18:32.599Z,9.10
2018-12-29T18:21:01.841Z,9.10
2018-12-29T18:23:31.325Z,9.10
2018-12-29T18:26:00.437Z,9.20
2018-12-29T18:28:29.479Z,9.20
2018-12-29T18:30:58.697Z,9.20
2018-12-29T18:33:28.113Z,9.20
2018-12-29T18:35:57.809Z,9.20
2018-12-29T18:38:26.703Z,9.20
2018-12-29T18:40:55.730Z,9.30
2018-12-29T18:43:24.835Z,9.20
2018-12-29T18:45:53.893Z,9.20
2018-12-29T18:48:23.154Z,9.20
2018-12-29T18:50:52.659Z,9.20
2018-12-29T18:53:21.713Z,9.10
2018-12-29T18:55:50.719Z,9.20
2018-12-29T18:58:19.872Z,9.20
2018-12-29T19:00:48.891Z,9.40
2018-12-29T19:03:18.567Z,9.40
2018-12-29T19:05:47.846Z,9.40
2018-12-29T19:08:17.085Z,9.40
2018-12-29T19:10:46.311Z,9.40
2018-12-29T19:13:15.710Z,9.50
2018-12-29T19:15:45.255Z,9.60
2018-12-29T19:18:14.414Z,9.60
2018-12-29T19:20:43.788Z,9.70
2018-12-29T19:23:13.298Z,9.60
2018-12-29T19:25:42.436Z,9.60
2018-12-29T19:28:11.675Z,9.70
2018-12-29T19:30:40.795Z,9.70
2018-12-29T19:33:10.341Z,9.70
2018-12-29T19:35:39.459Z,9.60
2018-12-29T19:38:09.721Z,9.50
2018-12-29T19:40:39.230Z,9.60
2018-12-29T19:43:08.333Z,9.50
2018-12-29T19:45:37.282Z,9.50
2018-12-29T19:48:07.901Z,9.40
2018-12-29T19:50:37.027Z,9.50
2018-12-29T19:53:06.122Z,9.40
2018-12-29T19:55:35.248Z,9.40
2018-12-29T19:58:04.432Z,9.40
2018-12-29T20:00:33.925Z,9.30
2018-12-29T20:03:03.034Z,9.40
2018-12-29T20:05:32.448Z,9.50
2018-12-29T20:08:01.540Z,9.40
2018-12-29T20:10:35.024Z,9.40
2018-12-29T20:13:06.118Z,9.40
2018-12-29T20:15:35.156Z,9.30
2018-12-29T20:18:04.274Z,9.30
2018-12-29T20:20:33.433Z,9.40
2018-12-29T20:23:02.414Z,9.40
2018-12-29T20:25:31.782Z,9.30
2018-12-29T20:28:00.834Z,9.30
2018-12-29T20:30:29.861Z,9.40
2018-12-29T20:32:59.300Z,9.30
2018-12-29T20:35:28.509Z,9.30
2018-12-29T20:37:57.806Z,9.30
2018-12-29T20:40:26.941Z,9.20
2018-12-29T20:42:56.238Z,9.20
2018-12-29T20:45:25.389Z,9.20
2018-12-29T20:47:54.649Z,9.30
2018-12-29T20:50:24.132Z,9.30
2018-12-29T20:52:53.157Z,9.30
2018-12-29T20:55:22.559Z,9.30
2018-12-29T20:57:51.505Z,9.30
2018-12-29T21:00:20.504Z,9.30
2018-12-29T21:02:49.783Z,9.30
2018-12-29T21:05:22.053Z,9.30
2018-12-29T21:07:51.273Z,9.30
2018-12-29T21:10:20.297Z,9.30
2018-12-29T21:12:49.385Z,9.20
2018-12-29T21:15:20.113Z,9.20
2018-12-29T21:17:49.269Z,9.10
2018-12-29T21:20:19.994Z,9.20
2018-12-29T21:22:49.034Z,9.10
2018-12-29T21:25:18.131Z,9.10
2018-12-29T21:27:47.321Z,9.10
2018-12-29T21:30:16.361Z,9.00
2018-12-29T21:32:45.496Z,9.10
2018-12-29T21:35:14.608Z,9.10
2018-12-29T21:37:43.777Z,9.10
2018-12-29T21:40:15.734Z,9.10
2018-12-29T21:42:45.070Z,9.10
2018-12-29T21:45:14.154Z,9.10
2018-12-29T21:48:02.434Z,9.10
2018-12-29T21:50:31.498Z,9.10
2018-12-29T21:53:00.752Z,9.10
2018-12-29T21:55:30.050Z,9.10
2018-12-29T21:57:59.130Z,9.10
2018-12-29T22:00:28.180Z,9.10
2018-12-29T22:02:57.302Z,9.00
2018-12-29T22:05:26.683Z,9.10
2018-12-29T22:07:55.741Z,9.00
2018-12-29T22:10:24.775Z,9.10
2018-12-29T22:12:53.850Z,9.00
2018-12-29T22:15:22.817Z,9.00
2018-12-29T22:17:51.913Z,9.00
2018-12-29T22:20:21.008Z,9.00
2018-12-29T22:22:50.107Z,9.00
2018-12-29T22:25:19.224Z,9.00
2018-12-29T22:27:48.279Z,9.00
2018-12-29T22:30:17.449Z,9.00
2018-12-29T22:32:46.466Z,9.00
2018-12-29T22:35:15.489Z,9.00
2018-12-29T22:37:44.625Z,9.00
2018-12-29T22:40:13.713Z,9.00
2018-12-29T22:42:42.766Z,9.00
2018-12-29T22:45:12.101Z,9.00
2018-12-29T22:47:41.218Z,8.90
2018-12-29T22:50:10.296Z,8.90
2018-12-29T22:52:39.380Z,8.90
2018-12-29T22:55:08.592Z,8.90
2018-12-29T22:57:37.988Z,8.90
2018-12-29T23:00:10.137Z,8.90
2018-12-29T23:02:39.497Z,8.90
2018-12-29T23:05:08.558Z,8.80
2018-12-29T23:07:37.699Z,8.80
2018-12-29T23:10:06.847Z,8.80
2018-12-29T23:12:36.052Z,8.80
2018-12-29T23:15:06.512Z,8.80
2018-12-29T23:17:35.592Z,8.80
2018-12-29T23:20:05.034Z,8.80
2018-12-29T23:22:34.393Z,8.80
2018-12-29T23:25:03.422Z,8.90
2018-12-29T23:27:32.921Z,8.90
2018-12-29T23:30:02.180Z,8.90
2018-12-29T23:32:31.377Z,8.90
2018-12-29T23:35:00.653Z,8.90
2018-12-29T23:37:29.640Z,8.90
2018-12-29T23:39:59.169Z,8.90
2018-12-29T23:42:28.305Z,8.90
2018-12-29T23:44:57.313Z,8.80
2018-12-29T23:47:26.927Z,8.90
2018-12-29T23:49:56.138Z,8.80
2018-12-29T23:52:25.214Z,8.80
2018-12-29T23:54:54.174Z,8.80
2018-12-29T23:57:23.234Z,8.80
2018-12-29T23:59:52.597Z,8.80
